createdAt,value
2017-12-20T14:41:52.088Z,7.80
2017-12-20T14:44:19.624Z,7.80
2017-12-20T14:46:47.160Z,7.80
2017-12-20T14:49:14.739Z,7.80
2017-12-20T14:51:42.274Z,7.80
2017-12-20T14:54:10.564Z,7.80
2017-12-20T15:11:54.858Z,7.80
2017-12-20T15:14:22.392Z,7.90
2017-12-20T15:16:50.695Z,7.90
2017-12-20T15:19:18.396Z,7.90
2017-12-20T15:21:45.940Z,7.90
2017-12-20T15:24:14.227Z,7.80
2017-12-20T15:26:41.803Z,7.80
2017-12-20T15:29:10.097Z,7.70
2017-12-20T15:31:37.627Z,7.70
2017-12-20T15:34:05.557Z,7.70
2017-12-20T15:36:33.111Z,7.70
2017-12-20T15:39:01.518Z,7.60
2017-12-20T15:41:29.103Z,7.60
2017-12-20T15:43:56.643Z,7.60
2017-12-20T15:46:24.939Z,7.60
2017-12-20T15:48:52.744Z,7.60
2017-12-20T15:51:20.277Z,7.60
2017-12-20T15:53:48.579Z,7.60
2017-12-20T15:56:16.160Z,7.50
2017-12-20T15:58:43.694Z,7.50
2017-12-20T16:01:11.250Z,7.60
2017-12-20T16:03:40.335Z,7.50
2017-12-20T16:06:07.867Z,7.50
2017-12-20T16:08:35.398Z,7.50
2017-12-20T16:11:03.008Z,7.60
2017-12-20T16:13:30.602Z,7.60
2017-12-20T16:15:58.135Z,7.60
2017-12-20T16:18:26.582Z,7.60
2017-12-20T16:20:54.125Z,7.60
2017-12-20T16:23:21.651Z,7.60
2017-12-20T16:25:49.359Z,7.60
2017-12-20T16:28:16.894Z,7.70
2017-12-20T16:30:44.462Z,7.70
2017-12-20T16:33:12.038Z,7.70
2017-12-20T16:35:39.567Z,7.70
2017-12-20T16:38:07.107Z,7.70
2017-12-20T16:40:35.640Z,7.70
2017-12-20T16:43:03.167Z,7.70
2017-12-20T16:45:31.466Z,7.70
2017-12-20T16:47:59.063Z,7.70
2017-12-20T16:50:26.601Z,7.90
2017-12-20T16:52:54.896Z,8.30
2017-12-20T16:55:22.854Z,8.30
2017-12-20T16:57:51.392Z,8.20
2017-12-20T17:00:19.340Z,8.20
2017-12-20T17:02:47.244Z,8.20
2017-12-20T17:05:19.696Z,8.10
2017-12-20T17:07:47.309Z,8.00
2017-12-20T17:10:14.977Z,8.00
2017-12-20T17:12:42.703Z,8.00
2017-12-20T17:15:10.280Z,7.90
2017-12-20T17:17:37.886Z,7.90
2017-12-20T17:20:05.572Z,7.80
2017-12-20T17:22:33.235Z,7.80
2017-12-20T17:25:00.847Z,7.80
2017-12-20T17:27:28.379Z,7.80
2017-12-20T17:29:55.956Z,7.80
2017-12-20T17:32:23.479Z,7.80
2017-12-20T17:34:51.019Z,7.80
2017-12-20T17:37:18.695Z,7.80
2017-12-20T17:39:46.227Z,7.80
2017-12-20T17:42:14.650Z,7.80
2017-12-20T17:44:42.223Z,7.70
2017-12-20T17:47:09.759Z,7.70
2017-12-20T17:49:38.056Z,7.70
2017-12-20T17:52:06.409Z,7.70
2017-12-20T17:54:33.943Z,7.60
2017-12-20T17:57:01.484Z,7.60
2017-12-20T17:59:29.069Z,7.60
2017-12-20T18:01:56.603Z,7.60
2017-12-20T18:04:24.130Z,7.60
2017-12-20T18:06:51.806Z,7.60
2017-12-20T18:09:19.347Z,7.60
2017-12-20T18:11:47.650Z,7.60
2017-12-20T18:14:16.150Z,7.60
2017-12-20T18:16:43.695Z,7.60
2017-12-20T18:19:11.236Z,7.60
2017-12-20T18:21:38.827Z,7.60
2017-12-20T18:24:06.381Z,7.70
2017-12-20T18:26:33.911Z,7.70
2017-12-20T18:29:01.788Z,7.60
2017-12-20T18:31:29.323Z,7.60
2017-12-20T18:33:56.867Z,7.60
2017-12-20T18:36:24.546Z,7.60
2017-12-20T18:38:52.090Z,7.60
2017-12-20T18:41:19.629Z,7.60
2017-12-20T18:43:47.216Z,7.60
2017-12-20T18:46:14.763Z,7.60
2017-12-20T18:48:42.291Z,7.60
2017-12-20T18:51:10.647Z,7.60
2017-12-20T18:53:38.186Z,7.50
2017-12-20T18:56:05.718Z,7.50
2017-12-20T18:58:33.294Z,7.60
2017-12-20T19:01:00.822Z,7.60
2017-12-20T19:03:28.346Z,7.60
2017-12-20T19:05:56.697Z,7.60
2017-12-20T19:08:24.246Z,7.60
2017-12-20T19:10:51.780Z,7.60
2017-12-20T19:13:19.387Z,7.60
2017-12-20T19:15:46.942Z,7.60
2017-12-20T19:18:14.479Z,7.60
2017-12-20T19:20:42.079Z,7.60
2017-12-20T19:23:10.382Z,7.60
2017-12-20T19:25:37.927Z,7.60
2017-12-20T19:28:06.338Z,7.60
2017-12-20T19:30:33.872Z,7.60
2017-12-20T19:33:02.406Z,7.60
2017-12-20T19:35:30.207Z,7.60
2017-12-20T19:37:57.758Z,7.60
2017-12-20T19:40:26.078Z,7.60
2017-12-20T19:42:53.787Z,7.50
2017-12-20T19:45:22.087Z,7.50
2017-12-20T19:47:50.397Z,7.40
2017-12-20T19:50:17.983Z,7.50
2017-12-20T19:52:45.517Z,7.40
2017-12-20T19:55:13.808Z,7.40
2017-12-20T19:57:42.154Z,7.40
2017-12-20T20:00:09.699Z,7.40
2017-12-20T20:02:37.228Z,7.40
2017-12-20T20:05:05.577Z,7.30
2017-12-20T20:07:33.134Z,7.30
2017-12-20T20:10:00.656Z,7.40
2017-12-20T20:12:29.204Z,7.40
2017-12-20T20:14:56.748Z,7.30
2017-12-20T20:17:24.288Z,7.40
2017-12-20T20:19:52.642Z,7.40
2017-12-20T20:22:20.175Z,7.40
2017-12-20T20:24:47.723Z,7.40
2017-12-20T20:27:16.075Z,7.40
2017-12-20T20:29:44.333Z,7.40
2017-12-20T20:32:11.874Z,7.40
2017-12-20T20:34:40.386Z,7.40
2017-12-20T20:37:07.959Z,7.40
2017-12-20T20:39:35.542Z,7.40
2017-12-20T20:42:03.613Z,7.40
2017-12-20T20:44:31.211Z,7.50
2017-12-20T20:46:58.743Z,7.50
2017-12-20T20:49:27.089Z,7.40
2017-12-20T20:51:54.618Z,7.40
2017-12-20T20:54:22.157Z,7.40
2017-12-20T20:56:49.722Z,7.30
2017-12-20T20:59:17.279Z,7.30
2017-12-20T21:01:45.581Z,7.30
2017-12-20T21:04:13.168Z,7.30
2017-12-20T21:06:41.479Z,7.40
2017-12-20T21:09:09.025Z,7.40
2017-12-20T21:11:37.474Z,7.40
2017-12-20T21:14:05.003Z,7.30
2017-12-20T21:16:33.313Z,7.40
2017-12-20T21:19:00.891Z,7.40
2017-12-20T21:21:28.439Z,7.40
2017-12-20T21:23:55.974Z,7.40
2017-12-20T21:26:23.555Z,7.50
2017-12-20T21:28:51.196Z,7.40
2017-12-20T21:31:18.723Z,7.40
2017-12-20T21:33:46.412Z,7.40
2017-12-20T21:36:13.969Z,7.40
2017-12-20T21:38:41.499Z,7.40
2017-12-20T21:41:09.066Z,7.40
2017-12-20T21:43:36.604Z,7.40
2017-12-20T21:46:04.132Z,7.30
2017-12-20T21:48:31.705Z,7.30
2017-12-20T21:51:00.029Z,7.30
2017-12-20T21:53:27.577Z,7.30
2017-12-20T21:55:56.070Z,7.30
2017-12-20T21:58:24.383Z,7.30
2017-12-20T22:00:51.915Z,7.30
2017-12-20T22:03:19.529Z,7.40
2017-12-20T22:05:47.076Z,7.40
2017-12-20T22:08:14.602Z,7.40
2017-12-20T22:10:42.667Z,7.30
2017-12-20T22:13:10.202Z,7.40
2017-12-20T22:15:37.747Z,7.40
2017-12-20T22:18:05.319Z,7.40
2017-12-20T22:20:33.632Z,7.40
2017-12-20T22:23:01.932Z,7.50
2017-12-20T22:25:29.723Z,7.50
2017-12-20T22:27:57.250Z,7.50
2017-12-20T22:30:25.571Z,7.50
2017-12-20T22:32:53.452Z,7.40
2017-12-20T22:35:20.991Z,7.50
2017-12-20T22:37:49.310Z,7.40
2017-12-20T22:40:17.084Z,7.40
2017-12-20T22:42:44.626Z,7.40
2017-12-20T22:45:12.959Z,7.40
2017-12-20T22:47:40.550Z,7.40
2017-12-20T22:50:08.074Z,7.40
2017-12-20T22:52:35.612Z,7.40
2017-12-20T22:55:04.716Z,7.40
2017-12-20T22:57:32.259Z,7.40
2017-12-20T22:59:59.797Z,7.40
2017-12-20T23:02:27.377Z,7.40
2017-12-20T23:04:54.914Z,7.40
2017-12-20T23:07:22.460Z,7.40
2017-12-20T23:09:50.134Z,7.40
2017-12-20T23:12:17.665Z,7.40
2017-12-20T23:14:45.219Z,7.40
2017-12-20T23:17:13.657Z,7.50
2017-12-20T23:19:41.192Z,7.50
2017-12-20T23:22:08.725Z,7.40
2017-12-20T23:24:36.469Z,7.40
2017-12-20T23:27:04.005Z,7.50
2017-12-20T23:29:31.547Z,7.50
2017-12-20T23:31:59.287Z,7.50
2017-12-20T23:34:26.816Z,7.50
2017-12-20T23:36:54.402Z,7.50
2017-12-20T23:39:21.978Z,7.60
2017-12-20T23:41:49.518Z,7.60
2017-12-20T23:44:17.823Z,7.50
2017-12-20T23:46:45.514Z,7.50
2017-12-20T23:49:13.043Z,7.50
2017-12-20T23:51:41.346Z,7.50
2017-12-20T23:54:09.143Z,7.50
2017-12-20T23:56:36.678Z,7.60
2017-12-20T23:59:04.214Z,7.60
